Time;durP1;ratioP1;P1;durP2;ratioP2;P2;SDS_P1;SDS_P2;PMS_P1;PMS_P2;Temp;Humidity;BMP_temperature;BMP_pressure;BME280_temperature;BME280_humidity;BME280_pressure;Samples;Min_cycle;Max_cycle;Signal;HPM_P1;HPM_P2
2020/12/04 00:00:30;;;;;;;30.17;16.60;;;;;;;;;;4973381;28;20270;-75
2020/12/04 00:02:57;;;;;;;30.83;16.77;;;;;;;;;;4990510;28;20270;-75
2020/12/04 00:05:23;;;;;;;28.37;17.00;;;;;;;;;;4997155;28;20321;-75
2020/12/04 00:07:49;;;;;;;33.67;17.77;;;;;;;;;;4989996;28;20276;-74
2020/12/04 00:10:15;;;;;;;32.30;17.90;;;;;;;;;;4995782;28;20966;-75
2020/12/04 00:12:44;;;;;;;30.23;18.23;;;;;;;;;;4977186;28;20311;-75
2020/12/04 00:15:10;;;;;;;32.67;17.53;;;;;;;;;;4994254;28;20265;-74
2020/12/04 00:17:36;;;;;;;29.73;17.87;;;;;;;;;;4997096;28;20273;-75
2020/12/04 00:20:06;;;;;;;32.10;16.60;;;;;;;;;;4994904;28;20274;-75
2020/12/04 00:22:32;;;;;;;31.20;18.13;;;;;;;;;;4998398;28;20276;-74
2020/12/04 00:24:58;;;;;;;29.27;15.93;;;;;;;;;;4996566;28;20274;-74
2020/12/04 00:27:25;;;;;;;31.33;18.90;;;;;;;;;;4977328;28;20412;-75
2020/12/04 00:29:51;;;;;;;31.60;16.47;;;;;;;;;;4994241;28;20293;-75
2020/12/04 00:32:17;;;;;;;29.07;18.23;;;;;;;;;;4977547;28;20376;-73
2020/12/04 00:34:43;;;;;;;30.10;16.57;;;;;;;;;;4983155;28;20316;-74
2020/12/04 00:37:11;;;;;;;31.27;17.77;;;;;;;;;;4982208;28;20265;-74
2020/12/04 00:39:37;;;;;;;30.00;16.83;;;;;;;;;;4986773;28;20250;-75
2020/12/04 00:42:03;;;;;;;33.40;17.90;;;;;;;;;;4985741;28;20762;-75
2020/12/04 00:44:29;;;;;;;29.67;17.63;;;;;;;;;;4995398;28;20264;-75
2020/12/04 00:46:55;;;;;;;30.63;17.00;;;;;;;;;;4993499;28;20619;-75
2020/12/04 00:49:21;;;;;;;27.17;16.10;;;;;;;;;;4981715;28;20293;-75
2020/12/04 00:51:47;;;;;;;29.03;17.30;;;;;;;;;;4993305;28;20654;-75
2020/12/04 00:54:13;;;;;;;30.27;15.43;;;;;;;;;;4993788;28;20269;-75
2020/12/04 00:56:39;;;;;;;31.93;18.93;;;;;;;;;;4979956;28;20284;-75
2020/12/04 00:59:05;;;;;;;29.63;16.93;;;;;;;;;;4976222;28;20319;-75
2020/12/04 01:01:32;;;;;;;29.30;15.93;;;;;;;;;;4978293;28;20828;-75
2020/12/04 01:03:59;;;;;;;26.93;17.13;;;;;;;;;;4975831;28;20361;-75
2020/12/04 01:06:25;;;;;;;33.33;18.77;;;;;;;;;;4994968;28;20298;-75
2020/12/04 01:08:51;;;;;;;29.73;18.17;;;;;;;;;;4999158;28;20292;-74
2020/12/04 01:11:19;;;;;;;29.37;16.90;;;;;;;;;;4996976;28;20768;-74
2020/12/04 01:13:45;;;;;;;26.83;15.97;;;;;;;;;;4993398;28;20261;-75
2020/12/04 01:16:11;;;;;;;29.33;16.27;;;;;;;;;;4977841;28;20262;-74
2020/12/04 01:18:38;;;;;;;31.53;19.23;;;;;;;;;;4982644;28;20269;-74
2020/12/04 01:21:05;;;;;;;31.93;16.53;;;;;;;;;;4993334;28;20253;-75
2020/12/04 01:23:31;;;;;;;35.73;18.43;;;;;;;;;;4978279;28;20328;-74
2020/12/04 01:25:57;;;;;;;31.57;17.77;;;;;;;;;;4993539;28;20260;-75
2020/12/04 01:28:23;;;;;;;32.70;18.07;;;;;;;;;;4992981;28;20261;-74
2020/12/04 01:30:49;;;;;;;27.30;16.40;;;;;;;;;;4994345;28;20324;-74
2020/12/04 01:33:15;;;;;;;26.57;14.63;;;;;;;;;;4975404;28;20272;-73
2020/12/04 01:35:41;;;;;;;24.60;13.47;;;;;;;;;;4980225;28;20653;-77
2020/12/04 01:38:07;;;;;;;26.70;16.03;;;;;;;;;;5004859;28;20262;-76
2020/12/04 01:40:33;;;;;;;33.30;16.10;;;;;;;;;;4998544;28;20311;-77
2020/12/04 01:43:00;;;;;;;27.03;15.30;;;;;;;;;;4985042;28;20308;-77
2020/12/04 01:45:26;;;;;;;26.97;15.50;;;;;;;;;;4993566;28;20963;-77
2020/12/04 01:47:53;;;;;;;28.53;15.03;;;;;;;;;;4994563;28;20273;-77
2020/12/04 01:50:20;;;;;;;26.20;14.53;;;;;;;;;;4976216;28;20308;-77
2020/12/04 01:52:48;;;;;;;26.53;14.53;;;;;;;;;;4997410;28;20273;-77
2020/12/04 01:55:14;;;;;;;21.80;11.73;;;;;;;;;;4996977;28;20491;-77
2020/12/04 01:57:46;;;;;;;37.27;18.50;;;;;;;;;;4998894;28;20329;-77
2020/12/04 02:00:12;;;;;;;31.63;16.07;;;;;;;;;;4994570;28;20312;-77
2020/12/04 02:02:38;;;;;;;33.37;17.43;;;;;;;;;;4979242;28;20281;-77
2020/12/04 02:05:04;;;;;;;31.00;17.77;;;;;;;;;;4975609;28;20276;-77
2020/12/04 02:07:42;;;;;;;32.77;18.07;;;;;;;;;;4975983;28;20778;-77
2020/12/04 02:10:16;;;;;;;31.53;18.07;;;;;;;;;;4998681;28;20304;-77
2020/12/04 02:12:42;;;;;;;30.27;17.63;;;;;;;;;;5002132;28;20355;-76
2020/12/04 02:15:09;;;;;;;33.30;19.03;;;;;;;;;;4994770;28;20102;-76
2020/12/04 02:17:35;;;;;;;30.40;17.17;;;;;;;;;;4977229;28;20682;-78
2020/12/04 02:20:02;;;;;;;29.97;17.20;;;;;;;;;;5003977;28;20288;-76
2020/12/04 02:22:38;;;;;;;27.47;16.87;;;;;;;;;;4974464;28;20818;-74
2020/12/04 02:25:07;;;;;;;25.87;14.83;;;;;;;;;;5002509;28;20353;-74
2020/12/04 02:27:34;;;;;;;30.13;16.33;;;;;;;;;;4978758;28;20261;-75
2020/12/04 02:30:00;;;;;;;28.63;15.60;;;;;;;;;;4991987;28;21086;-74
2020/12/04 02:32:26;;;;;;;29.00;16.00;;;;;;;;;;4996618;28;20268;-75
2020/12/04 02:34:52;;;;;;;28.80;16.10;;;;;;;;;;4979795;28;20297;-74
2020/12/04 02:37:18;;;;;;;29.07;16.53;;;;;;;;;;4979020;28;20341;-74
2020/12/04 02:39:44;;;;;;;29.27;14.80;;;;;;;;;;4997487;28;20273;-75
2020/12/04 02:42:10;;;;;;;27.80;15.50;;;;;;;;;;4993296;28;20348;-75
2020/12/04 02:44:37;;;;;;;24.93;15.37;;;;;;;;;;4974465;28;20261;-75
2020/12/04 02:47:03;;;;;;;28.93;15.30;;;;;;;;;;4979613;28;20284;-75
2020/12/04 02:49:29;;;;;;;26.47;16.90;;;;;;;;;;4974653;28;20297;-73
2020/12/04 02:51:57;;;;;;;29.17;16.27;;;;;;;;;;4976080;28;20468;-74
2020/12/04 02:54:23;;;;;;;29.43;16.10;;;;;;;;;;4982686;28;20278;-75
2020/12/04 02:56:49;;;;;;;27.50;14.67;;;;;;;;;;4991618;28;20328;-75
2020/12/04 02:59:15;;;;;;;30.47;16.30;;;;;;;;;;4976695;28;20272;-74
2020/12/04 03:01:41;;;;;;;27.63;16.20;;;;;;;;;;4973705;28;20273;-75
2020/12/04 03:04:08;;;;;;;26.40;15.33;;;;;;;;;;4998773;28;20282;-74
2020/12/04 03:06:34;;;;;;;24.83;14.37;;;;;;;;;;4973539;28;20278;-74
2020/12/04 03:09:01;;;;;;;24.37;14.70;;;;;;;;;;4974344;28;20309;-74
2020/12/04 03:11:28;;;;;;;28.20;16.43;;;;;;;;;;4972032;28;20276;-74
2020/12/04 03:13:55;;;;;;;25.53;15.47;;;;;;;;;;4984670;28;20306;-75
2020/12/04 03:16:21;;;;;;;26.63;16.60;;;;;;;;;;4977523;28;21021;-75
2020/12/04 03:18:47;;;;;;;27.90;16.73;;;;;;;;;;4990915;28;20270;-74
2020/12/04 03:21:13;;;;;;;28.83;16.43;;;;;;;;;;4977933;28;20273;-75
2020/12/04 03:23:39;;;;;;;28.90;15.60;;;;;;;;;;4990621;28;20392;-74
2020/12/04 03:26:05;;;;;;;31.93;16.97;;;;;;;;;;4991158;28;20273;-75
2020/12/04 03:28:31;;;;;;;29.27;17.37;;;;;;;;;;4976302;28;20300;-74
2020/12/04 03:30:59;;;;;;;30.70;15.47;;;;;;;;;;4994150;28;20356;-74
2020/12/04 03:33:25;;;;;;;28.27;16.83;;;;;;;;;;4978564;28;20253;-74
2020/12/04 03:35:51;;;;;;;25.37;15.67;;;;;;;;;;4975070;28;20750;-75
2020/12/04 03:38:17;;;;;;;29.47;14.30;;;;;;;;;;4973291;28;20276;-75
2020/12/04 03:40:44;;;;;;;25.87;15.43;;;;;;;;;;4991156;28;20348;-75
2020/12/04 03:43:10;;;;;;;30.00;16.77;;;;;;;;;;4967676;28;20273;-75
2020/12/04 03:45:36;;;;;;;26.67;14.57;;;;;;;;;;4990221;28;20265;-74
2020/12/04 03:48:03;;;;;;;29.23;16.27;;;;;;;;;;4973120;28;20295;-74
2020/12/04 03:50:29;;;;;;;25.13;14.37;;;;;;;;;;4979551;28;20285;-74
2020/12/04 03:52:55;;;;;;;29.53;15.73;;;;;;;;;;4975574;28;20258;-75
2020/12/04 03:55:21;;;;;;;27.57;15.47;;;;;;;;;;4990134;28;20352;-75
2020/12/04 03:57:47;;;;;;;23.33;13.73;;;;;;;;;;4992741;28;20273;-75
2020/12/04 04:00:13;;;;;;;27.73;15.23;;;;;;;;;;4973044;28;20272;-74
2020/12/04 04:02:39;;;;;;;25.73;13.20;;;;;;;;;;4993562;28;20276;-74
2020/12/04 04:05:06;;;;;;;26.67;15.97;;;;;;;;;;4995466;28;20281;-75
2020/12/04 04:07:32;;;;;;;28.80;15.93;;;;;;;;;;4972948;28;20274;-75
2020/12/04 04:09:58;;;;;;;26.53;16.33;;;;;;;;;;4982945;28;20285;-74
2020/12/04 04:12:24;;;;;;;30.93;17.20;;;;;;;;;;4973224;28;20328;-77
2020/12/04 04:14:50;;;;;;;31.50;15.40;;;;;;;;;;4973257;28;20297;-75
2020/12/04 04:17:16;;;;;;;31.20;17.47;;;;;;;;;;4977858;28;20352;-75
2020/12/04 04:19:42;;;;;;;25.63;14.43;;;;;;;;;;4973323;28;20349;-75
2020/12/04 04:22:08;;;;;;;26.60;15.43;;;;;;;;;;4973723;28;20323;-75
2020/12/04 04:24:34;;;;;;;33.40;18.13;;;;;;;;;;4972471;28;20285;-74
2020/12/04 04:27:00;;;;;;;28.70;15.63;;;;;;;;;;4972984;28;20261;-75
2020/12/04 04:29:26;;;;;;;26.17;15.57;;;;;;;;;;4972889;28;20278;-74
2020/12/04 04:31:52;;;;;;;29.70;16.37;;;;;;;;;;4973143;28;20262;-74
2020/12/04 04:34:19;;;;;;;28.73;16.60;;;;;;;;;;4995751;28;20264;-74
2020/12/04 04:36:45;;;;;;;28.07;16.43;;;;;;;;;;5002901;28;20257;-75
2020/12/04 04:39:12;;;;;;;26.93;14.77;;;;;;;;;;4984439;28;20312;-75
2020/12/04 04:41:38;;;;;;;27.67;17.37;;;;;;;;;;4984680;28;20266;-75
2020/12/04 04:44:04;;;;;;;32.07;16.33;;;;;;;;;;4994355;28;20725;-75
2020/12/04 04:46:51;;;;;;;29.30;16.60;;;;;;;;;;4979716;28;20301;-74
2020/12/04 04:49:27;;;;;;;35.73;19.07;;;;;;;;;;4990507;28;20282;-75
2020/12/04 04:51:55;;;;;;;27.60;16.87;;;;;;;;;;4975068;28;20284;-74
2020/12/04 04:54:21;;;;;;;26.10;16.30;;;;;;;;;;4973067;28;20277;-75
2020/12/04 04:56:47;;;;;;;30.83;17.77;;;;;;;;;;4992790;28;20300;-75
2020/12/04 04:59:20;;;;;;;29.33;16.87;;;;;;;;;;4970842;28;20352;-75
2020/12/04 05:01:50;;;;;;;33.20;18.47;;;;;;;;;;4975747;28;20301;-76
2020/12/04 05:04:16;;;;;;;29.33;17.63;;;;;;;;;;4991673;28;20273;-76
2020/12/04 05:06:43;;;;;;;26.47;17.07;;;;;;;;;;4992934;28;20293;-75
2020/12/04 05:09:10;;;;;;;32.67;18.20;;;;;;;;;;4975654;28;20369;-76
2020/12/04 05:11:36;;;;;;;27.73;16.33;;;;;;;;;;5001943;28;20269;-73
2020/12/04 05:14:16;;;;;;;28.70;16.63;;;;;;;;;;4999201;28;20296;-75
2020/12/04 05:16:43;;;;;;;30.47;17.30;;;;;;;;;;4961501;28;20698;-75
2020/12/04 05:19:09;;;;;;;31.47;17.53;;;;;;;;;;4975883;28;20339;-75
2020/12/04 05:21:37;;;;;;;32.03;18.97;;;;;;;;;;5004543;28;20959;-75
2020/12/04 05:24:03;;;;;;;28.33;17.23;;;;;;;;;;4976032;28;20265;-75
2020/12/04 05:26:34;;;;;;;29.90;17.13;;;;;;;;;;4975500;28;20305;-75
2020/12/04 05:29:00;;;;;;;29.93;17.30;;;;;;;;;;4999775;28;20285;-75
2020/12/04 05:31:35;;;;;;;30.87;18.67;;;;;;;;;;4992981;28;20308;-75
2020/12/04 05:34:01;;;;;;;31.63;17.40;;;;;;;;;;4993166;28;20388;-75
2020/12/04 05:36:29;;;;;;;32.77;18.70;;;;;;;;;;5006842;28;20268;-75
2020/12/04 05:38:56;;;;;;;24.90;15.47;;;;;;;;;;4993180;28;20265;-75
2020/12/04 05:41:22;;;;;;;28.40;17.17;;;;;;;;;;5001616;28;20361;-74
2020/12/04 05:43:50;;;;;;;31.60;16.37;;;;;;;;;;4992661;28;20273;-75
2020/12/04 05:46:19;;;;;;;32.10;17.80;;;;;;;;;;4990945;28;20708;-75
2020/12/04 05:49:07;;;;;;;29.63;16.73;;;;;;;;;;4995665;28;20273;-75
2020/12/04 05:51:34;;;;;;;32.20;18.13;;;;;;;;;;4985887;28;20257;-79
2020/12/04 05:54:00;;;;;;;31.93;18.30;;;;;;;;;;4974879;28;20297;-77
2020/12/04 05:56:27;;;;;;;30.70;16.53;;;;;;;;;;4976587;28;20339;-79
2020/12/04 05:58:56;;;;;;;30.90;17.17;;;;;;;;;;5004643;28;20841;-77
2020/12/04 06:01:23;;;;;;;29.40;17.30;;;;;;;;;;4981247;28;20265;-78
2020/12/04 06:03:50;;;;;;;30.20;16.63;;;;;;;;;;4977769;28;20277;-77
2020/12/04 06:06:37;;;;;;;26.77;15.53;;;;;;;;;;4988619;28;20956;-77
2020/12/04 06:09:04;;;;;;;28.07;16.30;;;;;;;;;;4972714;28;20285;-76
2020/12/04 06:11:37;;;;;;;30.57;17.23;;;;;;;;;;4993623;28;20293;-78
2020/12/04 06:14:13;;;;;;;23.10;14.00;;;;;;;;;;4989935;28;20292;-78
2020/12/04 06:16:39;;;;;;;28.33;14.57;;;;;;;;;;4998071;28;20026;-78
2020/12/04 06:19:25;;;;;;;34.67;18.37;;;;;;;;;;4996119;28;20674;-78
2020/12/04 06:21:51;;;;;;;33.73;16.57;;;;;;;;;;4985587;28;20293;-78
2020/12/04 06:24:17;;;;;;;27.70;15.30;;;;;;;;;;4972163;28;20273;-77
2020/12/04 06:26:47;;;;;;;31.60;15.53;;;;;;;;;;5003464;28;20273;-78
2020/12/04 06:29:13;;;;;;;28.97;17.17;;;;;;;;;;4996176;28;20296;-78
2020/12/04 06:31:42;;;;;;;32.63;18.03;;;;;;;;;;5003064;28;20261;-77
2020/12/04 06:34:19;;;;;;;32.43;16.70;;;;;;;;;;4972485;28;20270;-77
2020/12/04 06:36:46;;;;;;;29.83;17.20;;;;;;;;;;4982779;28;20874;-78
2020/12/04 06:39:27;;;;;;;27.97;16.70;;;;;;;;;;4982828;28;20270;-78
2020/12/04 06:41:53;;;;;;;29.87;16.53;;;;;;;;;;4974669;28;20281;-77
2020/12/04 06:44:20;;;;;;;32.93;18.27;;;;;;;;;;4976564;28;20288;-78
2020/12/04 06:46:47;;;;;;;27.73;16.70;;;;;;;;;;4990643;28;20273;-78
2020/12/04 06:49:22;;;;;;;33.30;17.07;;;;;;;;;;4992012;28;20297;-78
2020/12/04 06:51:55;;;;;;;26.13;15.77;;;;;;;;;;4976364;28;20265;-78
2020/12/04 06:54:21;;;;;;;27.80;15.80;;;;;;;;;;4986897;28;20269;-77
2020/12/04 06:56:50;;;;;;;33.67;18.53;;;;;;;;;;4994100;28;20030;-78
2020/12/04 06:59:20;;;;;;;38.37;20.60;;;;;;;;;;4997090;28;20269;-77
2020/12/04 07:01:46;;;;;;;29.47;19.30;;;;;;;;;;4971806;28;20782;-78
2020/12/04 07:04:13;;;;;;;29.77;17.00;;;;;;;;;;4988804;28;20266;-78
2020/12/04 07:06:39;;;;;;;30.37;17.00;;;;;;;;;;4988597;28;20380;-78
2020/12/04 07:09:05;;;;;;;26.47;16.67;;;;;;;;;;4980924;28;20376;-77
2020/12/04 07:11:31;;;;;;;24.47;15.20;;;;;;;;;;4974438;28;20321;-78
2020/12/04 07:13:58;;;;;;;28.10;16.90;;;;;;;;;;4971364;28;20270;-76
2020/12/04 07:16:25;;;;;;;29.40;16.80;;;;;;;;;;4992679;28;20274;-78
2020/12/04 07:18:54;;;;;;;26.63;16.27;;;;;;;;;;4974467;28;20270;-78
2020/12/04 07:21:26;;;;;;;28.13;16.47;;;;;;;;;;4977590;28;20986;-77
2020/12/04 07:23:54;;;;;;;31.20;16.33;;;;;;;;;;4972054;28;20399;-77
2020/12/04 07:26:21;;;;;;;28.27;15.40;;;;;;;;;;4988906;28;20277;-77
2020/12/04 07:28:47;;;;;;;25.93;15.30;;;;;;;;;;4982438;28;20273;-77
2020/12/04 07:31:20;;;;;;;29.17;16.67;;;;;;;;;;4975113;28;20685;-78
2020/12/04 07:34:04;;;;;;;29.60;13.88;;;;;;;;;;4974702;28;20261;-78
2020/12/04 07:36:32;;;;;;;29.20;16.00;;;;;;;;;;4983054;28;20030;-77
2020/12/04 07:39:02;;;;;;;27.00;16.10;;;;;;;;;;4971869;28;20280;-74
2020/12/04 07:41:32;;;;;;;27.23;15.17;;;;;;;;;;4988136;28;20634;-75
2020/12/04 07:43:59;;;;;;;27.90;17.27;;;;;;;;;;4970470;28;20316;-74
2020/12/04 07:46:25;;;;;;;28.33;16.93;;;;;;;;;;4969969;28;20264;-74
2020/12/04 07:49:01;;;;;;;28.00;17.73;;;;;;;;;;4979588;28;20826;-75
2020/12/04 07:51:27;;;;;;;36.13;16.67;;;;;;;;;;4970428;28;20270;-75
2020/12/04 07:53:58;;;;;;;23.47;14.70;;;;;;;;;;4970219;28;20257;-75
2020/12/04 07:56:26;;;;;;;26.87;14.20;;;;;;;;;;4986710;28;20273;-76
2020/12/04 07:58:57;;;;;;;28.00;16.00;;;;;;;;;;4971266;28;20262;-77
2020/12/04 08:01:24;;;;;;;24.27;13.60;;;;;;;;;;4987943;28;20268;-77
2020/12/04 08:03:50;;;;;;;26.80;16.13;;;;;;;;;;4988185;28;20257;-78
2020/12/04 08:06:21;;;;;;;26.40;15.73;;;;;;;;;;4988817;28;20270;-77
2020/12/04 08:08:47;;;;;;;25.53;14.33;;;;;;;;;;4987697;28;20245;-78
2020/12/04 08:11:14;;;;;;;23.77;14.77;;;;;;;;;;4971150;28;20257;-78
2020/12/04 08:13:44;;;;;;;26.50;14.77;;;;;;;;;;4977407;28;20257;-78
2020/12/04 08:16:10;;;;;;;27.10;15.63;;;;;;;;;;4986243;28;20339;-80
2020/12/04 08:18:36;;;;;;;21.93;13.57;;;;;;;;;;4970585;28;20269;-76
2020/12/04 08:21:06;;;;;;;26.60;15.07;;;;;;;;;;4972061;28;20269;-76
2020/12/04 08:23:33;;;;;;;23.13;14.47;;;;;;;;;;4969944;28;20258;-74
2020/12/04 08:25:59;;;;;;;22.70;13.90;;;;;;;;;;4986808;28;20274;-75
2020/12/04 08:28:25;;;;;;;26.20;14.90;;;;;;;;;;4973589;28;20300;-75
2020/12/04 08:30:51;;;;;;;24.77;14.30;;;;;;;;;;4996614;28;20282;-75
2020/12/04 08:33:18;;;;;;;22.50;13.97;;;;;;;;;;4996266;28;20281;-75
2020/12/04 08:35:45;;;;;;;23.97;14.50;;;;;;;;;;4990633;28;20730;-76
2020/12/04 08:38:11;;;;;;;28.27;14.40;;;;;;;;;;4994219;28;20264;-75
2020/12/04 08:40:39;;;;;;;25.80;14.37;;;;;;;;;;4991004;28;20302;-76
2020/12/04 08:43:11;;;;;;;27.03;14.00;;;;;;;;;;4990518;28;20261;-75
2020/12/04 08:45:38;;;;;;;24.37;15.07;;;;;;;;;;4977668;28;20269;-75
2020/12/04 08:48:16;;;;;;;25.90;14.97;;;;;;;;;;4973138;28;20324;-75
2020/12/04 08:50:44;;;;;;;23.97;14.53;;;;;;;;;;4974077;28;20588;-74
2020/12/04 08:53:11;;;;;;;24.83;14.40;;;;;;;;;;4973111;28;20612;-75
2020/12/04 08:55:37;;;;;;;23.17;14.27;;;;;;;;;;4991440;28;20363;-74
2020/12/04 08:58:03;;;;;;;28.00;15.93;;;;;;;;;;4990947;28;20308;-76
2020/12/04 09:00:33;;;;;;;25.13;13.50;;;;;;;;;;4975393;28;20352;-74
2020/12/04 09:02:59;;;;;;;26.67;15.40;;;;;;;;;;4979308;28;20762;-74
2020/12/04 09:05:25;;;;;;;25.50;13.87;;;;;;;;;;4972400;28;20320;-74
2020/12/04 09:07:51;;;;;;;25.27;13.83;;;;;;;;;;4973400;28;20261;-75
2020/12/04 09:10:19;;;;;;;27.10;15.13;;;;;;;;;;4980201;28;20284;-74
2020/12/04 09:12:49;;;;;;;27.00;15.80;;;;;;;;;;4990234;28;20327;-75
2020/12/04 09:15:17;;;;;;;28.73;15.30;;;;;;;;;;4989456;28;20377;-75
2020/12/04 09:17:43;;;;;;;26.10;15.47;;;;;;;;;;4972855;28;20272;-76
2020/12/04 09:20:10;;;;;;;24.23;14.43;;;;;;;;;;4990005;28;20268;-74
2020/12/04 09:22:37;;;;;;;24.97;15.57;;;;;;;;;;4978098;28;20262;-78
2020/12/04 09:25:04;;;;;;;26.53;16.47;;;;;;;;;;4995993;28;20650;-75
2020/12/04 09:27:30;;;;;;;25.00;14.80;;;;;;;;;;4973934;28;20277;-75
2020/12/04 09:29:56;;;;;;;25.40;15.00;;;;;;;;;;4978442;28;20289;-75
2020/12/04 09:32:22;;;;;;;27.63;16.07;;;;;;;;;;4992002;28;20833;-74
2020/12/04 09:34:49;;;;;;;29.47;16.30;;;;;;;;;;4990949;28;20262;-75
2020/12/04 09:37:17;;;;;;;28.60;15.63;;;;;;;;;;4978849;28;21185;-74
2020/12/04 09:39:44;;;;;;;26.27;15.63;;;;;;;;;;4990093;28;20772;-75
2020/12/04 09:42:11;;;;;;;23.27;15.20;;;;;;;;;;4992751;28;20273;-74
2020/12/04 09:44:39;;;;;;;27.13;16.33;;;;;;;;;;4971512;28;20632;-75
2020/12/04 09:47:05;;;;;;;24.83;15.23;;;;;;;;;;4989745;28;20262;-75
2020/12/04 09:49:31;;;;;;;25.90;14.70;;;;;;;;;;4971748;28;20277;-75
2020/12/04 09:51:58;;;;;;;22.77;15.33;;;;;;;;;;4971969;28;20262;-74
2020/12/04 09:54:28;;;;;;;23.90;14.83;;;;;;;;;;4972416;28;20037;-75
2020/12/04 09:56:55;;;;;;;28.10;15.27;;;;;;;;;;4972249;28;20018;-75
2020/12/04 09:59:24;;;;;;;25.30;14.90;;;;;;;;;;4988491;28;20869;-75
2020/12/04 10:01:51;;;;;;;25.63;15.23;;;;;;;;;;4997420;28;20169;-75
2020/12/04 10:04:18;;;;;;;25.47;15.33;;;;;;;;;;4997119;28;20022;-76
2020/12/04 10:06:44;;;;;;;24.80;15.83;;;;;;;;;;4972723;28;20483;-75
2020/12/04 10:09:11;;;;;;;26.50;15.73;;;;;;;;;;4976297;28;20765;-75
2020/12/04 10:11:37;;;;;;;25.10;14.83;;;;;;;;;;4972498;28;21038;-75
2020/12/04 10:14:03;;;;;;;24.60;15.03;;;;;;;;;;4972072;28;20328;-74
2020/12/04 10:16:30;;;;;;;25.77;15.17;;;;;;;;;;4974814;28;20343;-75
2020/12/04 10:18:57;;;;;;;26.10;15.00;;;;;;;;;;4971780;28;20269;-75
2020/12/04 10:21:24;;;;;;;25.80;16.73;;;;;;;;;;4988757;28;20758;-75
2020/12/04 10:23:50;;;;;;;26.20;15.53;;;;;;;;;;4971066;28;20714;-76
2020/12/04 10:26:16;;;;;;;25.83;16.50;;;;;;;;;;4999501;28;20372;-74
2020/12/04 10:28:42;;;;;;;26.63;16.23;;;;;;;;;;4988757;28;20293;-76
2020/12/04 10:31:08;;;;;;;26.57;17.00;;;;;;;;;;4973394;28;20038;-75
2020/12/04 10:33:34;;;;;;;27.57;16.07;;;;;;;;;;4978700;28;20980;-74
2020/12/04 10:36:04;;;;;;;28.03;15.63;;;;;;;;;;4981257;28;20023;-75
2020/12/04 10:38:30;;;;;;;24.20;15.53;;;;;;;;;;4980521;28;20073;-75
2020/12/04 10:40:57;;;;;;;26.23;16.10;;;;;;;;;;4985114;28;20053;-75
2020/12/04 10:43:23;;;;;;;26.77;17.17;;;;;;;;;;4971347;28;20410;-75
2020/12/04 10:45:49;;;;;;;26.27;16.43;;;;;;;;;;4969814;28;20034;-75
2020/12/04 10:48:16;;;;;;;29.37;16.20;;;;;;;;;;4993018;28;20026;-75
2020/12/04 10:50:42;;;;;;;29.43;16.13;;;;;;;;;;4992823;28;20569;-76
2020/12/04 10:53:08;;;;;;;27.93;17.00;;;;;;;;;;4970470;28;20027;-76
2020/12/04 10:55:34;;;;;;;34.33;18.00;;;;;;;;;;4987886;28;20065;-75
2020/12/04 10:58:00;;;;;;;26.03;14.83;;;;;;;;;;4993219;28;20038;-75
2020/12/04 11:00:26;;;;;;;31.97;18.80;;;;;;;;;;4970515;28;20030;-75
2020/12/04 11:02:58;;;;;;;27.33;16.13;;;;;;;;;;4970065;28;20148;-75
2020/12/04 11:07:53;;;;;;;23.43;15.33;;;;;;;;;;4992277;28;20042;-75
2020/12/04 11:10:20;;;;;;;27.57;16.43;;;;;;;;;;4988615;28;20034;-75
2020/12/04 11:12:46;;;;;;;29.07;16.47;;;;;;;;;;4989768;28;20328;-75
2020/12/04 11:15:12;;;;;;;28.30;17.30;;;;;;;;;;4988936;28;20277;-74
2020/12/04 11:17:39;;;;;;;29.67;16.27;;;;;;;;;;5007967;28;20268;-75
2020/12/04 11:20:05;;;;;;;28.57;16.63;;;;;;;;;;4985079;28;20277;-74
2020/12/04 11:22:33;;;;;;;28.07;17.60;;;;;;;;;;4997265;28;20342;-76
2020/12/04 11:25:00;;;;;;;28.57;16.30;;;;;;;;;;4986315;28;20321;-75
2020/12/04 11:27:26;;;;;;;30.53;17.73;;;;;;;;;;4985755;28;20305;-74
2020/12/04 11:29:52;;;;;;;24.60;15.63;;;;;;;;;;4989839;28;20293;-74
2020/12/04 11:32:18;;;;;;;29.13;16.57;;;;;;;;;;4995078;28;20281;-75
2020/12/04 11:34:44;;;;;;;29.13;16.80;;;;;;;;;;4989581;28;20296;-76
2020/12/04 11:37:11;;;;;;;28.93;16.17;;;;;;;;;;4979083;28;20269;-75
2020/12/04 11:39:41;;;;;;;30.47;16.57;;;;;;;;;;4987293;28;20364;-75
2020/12/04 11:42:11;;;;;;;27.37;18.40;;;;;;;;;;4989467;28;20377;-74
2020/12/04 11:44:37;;;;;;;32.07;17.10;;;;;;;;;;4969037;28;20274;-75
2020/12/04 11:47:03;;;;;;;27.10;17.50;;;;;;;;;;4991446;28;20353;-76
2020/12/04 11:49:29;;;;;;;31.97;17.37;;;;;;;;;;4971536;28;20379;-74
2020/12/04 11:51:56;;;;;;;28.93;17.43;;;;;;;;;;4988808;28;20387;-74
2020/12/04 11:54:22;;;;;;;33.43;19.63;;;;;;;;;;4988528;28;20282;-74
2020/12/04 11:56:50;;;;;;;33.53;20.27;;;;;;;;;;4987030;28;20273;-73
2020/12/04 11:59:20;;;;;;;37.30;22.43;;;;;;;;;;4976501;28;20285;-74
2020/12/04 12:01:46;;;;;;;49.83;28.53;;;;;;;;;;4972335;28;20268;-74
2020/12/04 12:04:18;;;;;;;39.20;21.47;;;;;;;;;;4977274;28;20750;-75
2020/12/04 12:06:44;;;;;;;34.50;21.27;;;;;;;;;;4968882;28;20391;-75
2020/12/04 12:09:10;;;;;;;28.80;17.27;;;;;;;;;;4973567;28;21126;-75
2020/12/04 12:11:36;;;;;;;35.97;19.83;;;;;;;;;;4973781;28;20292;-74
2020/12/04 12:14:02;;;;;;;29.17;15.53;;;;;;;;;;4983889;28;20947;-74
2020/12/04 12:16:29;;;;;;;29.60;18.37;;;;;;;;;;4989253;28;20340;-74
2020/12/04 12:18:55;;;;;;;31.43;18.83;;;;;;;;;;4971467;28;20360;-75
2020/12/04 12:21:21;;;;;;;33.77;17.77;;;;;;;;;;4988560;28;20261;-74
2020/12/04 12:23:47;;;;;;;32.53;18.43;;;;;;;;;;4972559;28;20372;-74
2020/12/04 12:26:13;;;;;;;32.03;19.33;;;;;;;;;;4985141;28;20273;-75
2020/12/04 12:28:40;;;;;;;30.83;19.03;;;;;;;;;;4986288;28;20393;-76
2020/12/04 12:31:06;;;;;;;35.57;20.97;;;;;;;;;;4992388;28;20300;-76
2020/12/04 12:33:33;;;;;;;29.00;17.60;;;;;;;;;;4981178;28;20303;-76
2020/12/04 12:35:59;;;;;;;30.53;18.83;;;;;;;;;;4998980;28;20254;-76
2020/12/04 12:38:25;;;;;;;31.77;19.37;;;;;;;;;;4973494;28;20266;-76
2020/12/04 12:40:51;;;;;;;29.80;17.77;;;;;;;;;;4978262;28;20299;-77
2020/12/04 12:43:18;;;;;;;46.33;29.37;;;;;;;;;;5000176;28;20315;-76
2020/12/04 12:45:44;;;;;;;32.57;22.60;;;;;;;;;;4973200;28;20269;-78
2020/12/04 12:48:10;;;;;;;36.23;22.83;;;;;;;;;;4990080;28;20266;-76
2020/12/04 12:50:36;;;;;;;39.90;23.83;;;;;;;;;;4986434;28;20339;-76
2020/12/04 12:53:02;;;;;;;32.13;18.67;;;;;;;;;;4975607;28;20304;-76
2020/12/04 12:55:28;;;;;;;35.60;19.20;;;;;;;;;;4968463;28;20339;-76
2020/12/04 12:57:54;;;;;;;32.77;19.53;;;;;;;;;;4987987;28;20875;-76
2020/12/04 13:00:21;;;;;;;32.20;18.47;;;;;;;;;;4971034;28;20305;-76
2020/12/04 13:02:47;;;;;;;30.40;17.70;;;;;;;;;;4969221;28;20360;-77
2020/12/04 13:05:32;;;;;;;29.07;17.53;;;;;;;;;;4973637;28;20281;-76
2020/12/04 13:08:03;;;;;;;29.23;16.10;;;;;;;;;;4969628;28;20282;-76
2020/12/04 13:10:30;;;;;;;27.43;16.33;;;;;;;;;;4976508;28;20284;-76
2020/12/04 13:12:56;;;;;;;32.17;18.17;;;;;;;;;;4994815;28;20269;-76
2020/12/04 13:15:22;;;;;;;29.47;17.83;;;;;;;;;;4981617;28;20881;-76
2020/12/04 13:17:49;;;;;;;33.90;17.93;;;;;;;;;;4972091;28;20265;-76
2020/12/04 13:20:18;;;;;;;28.87;17.27;;;;;;;;;;4995034;28;20261;-77
2020/12/04 13:23:11;;;;;;;26.80;16.37;;;;;;;;;;4990925;28;20261;-76
2020/12/04 13:25:30;;;;;;;28.97;18.33;;;;;;;;;;4994469;28;20303;-76
2020/12/04 13:27:57;;;;;;;30.47;17.43;;;;;;;;;;4980787;28;20273;-76
2020/12/04 13:30:23;;;;;;;30.97;18.23;;;;;;;;;;4979249;28;20978;-77
2020/12/04 13:32:49;;;;;;;29.27;16.97;;;;;;;;;;4979183;28;20274;-77
2020/12/04 13:35:17;;;;;;;33.67;19.50;;;;;;;;;;4975438;28;20270;-76
2020/12/04 13:37:43;;;;;;;32.63;17.33;;;;;;;;;;4977610;28;20272;-77
2020/12/04 13:40:10;;;;;;;28.67;16.93;;;;;;;;;;4985547;28;20269;-77
2020/12/04 13:42:36;;;;;;;29.67;18.07;;;;;;;;;;4992904;28;20320;-76
2020/12/04 13:45:05;;;;;;;34.73;18.47;;;;;;;;;;4987986;28;20828;-77
2020/12/04 13:47:32;;;;;;;28.67;16.73;;;;;;;;;;4968808;28;20269;-77
2020/12/04 13:49:58;;;;;;;31.17;17.03;;;;;;;;;;4982826;28;20297;-77
2020/12/04 13:52:24;;;;;;;26.23;15.30;;;;;;;;;;4974805;28;20265;-78
2020/12/04 13:54:51;;;;;;;31.90;17.73;;;;;;;;;;5006194;28;20372;-78
2020/12/04 13:57:17;;;;;;;31.50;16.97;;;;;;;;;;5000121;28;20261;-78
2020/12/04 13:59:43;;;;;;;36.80;21.03;;;;;;;;;;4982625;28;20265;-77
2020/12/04 14:02:11;;;;;;;38.17;22.83;;;;;;;;;;4994950;28;20289;-76
2020/12/04 14:04:38;;;;;;;31.83;18.93;;;;;;;;;;4983661;28;20261;-77
2020/12/04 14:07:06;;;;;;;31.83;18.57;;;;;;;;;;4983371;28;20281;-77
2020/12/04 14:09:32;;;;;;;36.53;19.80;;;;;;;;;;5000072;28;20289;-78
2020/12/04 14:11:58;;;;;;;37.13;21.10;;;;;;;;;;4980947;28;20278;-76
2020/12/04 14:14:24;;;;;;;34.67;19.33;;;;;;;;;;4997188;28;20262;-76
2020/12/04 14:16:50;;;;;;;40.07;24.57;;;;;;;;;;4999126;28;20617;-76
2020/12/04 14:19:19;;;;;;;35.50;19.60;;;;;;;;;;5000012;28;20281;-76